METAR Data
IDs: Format: Raw Decoded Include TAF

Data at: 0607 UTC 24 Sep 2018

KMCK 240553Z AUTO 16011KT 10SM CLR 18/11 A2983 RMK AO2 SLP080 T01780106 10283 20172 403170061 58006
KMCK 240453Z AUTO 14007KT 120V180 10SM CLR 19/10 A2984 RMK AO2 SLP086 T01890100
KMCK 240353Z AUTO 12007KT 10SM CLR 19/09 A2985 RMK AO2 SLP090 T01940094
KMCK 240253Z AUTO 14008KT 10SM CLR 21/09 A2985 RMK AO2 SLP095 T02060089 53009
KMCK 240153Z AUTO 14011KT 10SM CLR 22/08 A2984 RMK AO2 SLP095 T02170083
KMCK 240053Z AUTO 13011KT 10SM CLR 24/09 A2983 RMK AO2 SLP091 T02390089
KMCK 232353Z AUTO 16012G21KT 10SM CLR 28/06 A2983 RMK AO2 PK WND 14029/2303 SLP085 T02830056 10317 20267 55009
KMCK 232253Z AUTO 16017G25KT 10SM CLR 31/06 A2982 RMK AO2 PK WND 15028/2154 SLP083 T03060056
KMCK 232153Z AUTO 15017G28KT 10SM CLR 31/07 A2984 RMK AO2 PK WND 17028/2056 SLP086 T03110072
KMCK 232053Z AUTO 16015G25KT 10SM CLR 31/08 A2986 RMK AO2 PK WND 17028/2041 SLP092 T03110083 56028
KMCK 231953Z AUTO 16018G26KT 10SM CLR 31/07 A2988 RMK AO2 PK WND 15026/1951 SLP098 T03110067
KMCK 231853Z AUTO 14016G23KT 10SM CLR 30/08 A2991 RMK AO2 SLP108 T03000078
KMCK 231753Z AUTO 16011G19KT 10SM CLR 27/08 A2995 RMK AO2 SLP122 T02670083 10267 20061 58009
KMCK 231653Z AUTO 16008KT 10SM CLR 23/08 A2997 RMK AO2 SLP130 T02330083
KMCK 231553Z AUTO VRB03KT 10SM CLR 21/08 A2998 RMK AO2 SLP134 T02060078
KMCK 231453Z AUTO 16003KT 10SM CLR 15/08 A2998 RMK AO2 SLP139 T01500083 58000
KMCK 231353Z AUTO 16005KT 10SM CLR 09/07 A2998 RMK AO2 SLP144 T00940067
KMCK 231253Z AUTO 10003KT 9SM CLR 07/06 A2998 RMK AO2 SLP146 T00670056
KMCK 231153Z AUTO 09004KT 10SM CLR 07/05 A2998 RMK AO2 SLP141 T00670050 10139 20061 56007
KMCK 231053Z AUTO 00000KT 10SM CLR 07/05 A2998 RMK AO2 SLP139 T00720050
KMCK 230953Z AUTO 12006KT 10SM CLR 08/06 A2999 RMK AO2 SLP140 T00780056
KMCK 230853Z AUTO 11005KT 10SM CLR 09/06 A3000 RMK AO2 SLP145 T00890056 58009
KMCK 230753Z AUTO 10005KT 10SM CLR 11/06 A3002 RMK AO2 SLP149 T01060061
KMCK 230653Z AUTO 14003KT 10SM CLR 13/06 A3002 RMK AO2 SLP150 T01280061
KMCK 230553Z AUTO 15004KT 10SM CLR 14/06 A3003 RMK AO2 SLP154 T01390061 10244 20139 402830067 53001
KMCK 230453Z AUTO 17009KT 10SM CLR 16/06 A3003 RMK AO2 SLP154 T01560061
KMCK 230353Z AUTO 17009KT 10SM CLR 17/06 A3003 RMK AO2 SLP156 T01670061
KMCK 230253Z AUTO 16006KT 10SM CLR 17/07 A3003 RMK AO2 SLP159 T01670067 53003
KMCK 230153Z AUTO 16008KT 10SM CLR 19/07 A3002 RMK AO2 SLP156 T01940072
KMCK 230053Z AUTO 15008KT 10SM CLR 21/07 A3002 RMK AO2 SLP156 T02060072
KMCK 222353Z AUTO 16015G25KT 10SM CLR 24/07 A3002 RMK AO2 SLP154 60000 T02440072 10283 20233 55007
KMCK 222253Z AUTO 18016G22KT 10SM CLR 27/07 A3002 RMK AO2 PK WND 19026/2232 SLP152 T02670067
KMCK 222153Z AUTO 19015G24KT 10SM CLR 28/06 A3003 RMK AO2 PK WND 19026/2140 SLP154 T02780061
KMCK 222053Z AUTO 19014G26KT 10SM CLR 28/06 A3004 RMK AO2 PK WND 16028/2006 SLP160 60000 T02780056 56034
KMCK 221953Z AUTO 18015G26KT 10SM CLR 27/06 A3007 RMK AO2 PK WND 19027/1929 RAB42E53 SLP171 P0000 T02670061
KMCK 221853Z AUTO 17014G25KT 10SM CLR 26/07 A3011 RMK AO2 PK WND 16027/1826 SLP186 T02560067